sensor_id;sensor_type;location;lat;lon;timestamp;P1;durP1;ratioP1;P2;durP2;ratioP2
48026;SDS011;50714;49.208;5.364;2022-10-16T00:02:15;13.95;;;10.25;;
48026;SDS011;50714;49.208;5.364;2022-10-16T00:12:16;6.72;;;4.70;;
48026;SDS011;50714;49.208;5.364;2022-10-16T00:22:16;1.58;;;1.10;;
48026;SDS011;50714;49.208;5.364;2022-10-16T00:32:17;0.60;;;0.60;;
48026;SDS011;50714;49.208;5.364;2022-10-16T00:42:18;0.35;;;0.22;;
48026;SDS011;50714;49.208;5.364;2022-10-16T00:52:19;0.20;;;0.20;;
48026;SDS011;50714;49.208;5.364;2022-10-16T01:02:20;0.65;;;0.60;;
48026;SDS011;50714;49.208;5.364;2022-10-16T01:22:54;0.52;;;0.40;;
48026;SDS011;50714;49.208;5.364;2022-10-16T01:32:57;0.33;;;0.33;;
48026;SDS011;50714;49.208;5.364;2022-10-16T01:43:08;0.60;;;0.40;;
48026;SDS011;50714;49.208;5.364;2022-10-16T01:53:12;0.93;;;0.50;;
48026;SDS011;50714;49.208;5.364;2022-10-16T02:03:16;0.43;;;0.30;;
48026;SDS011;50714;49.208;5.364;2022-10-16T02:13:21;0.75;;;0.30;;
48026;SDS011;50714;49.208;5.364;2022-10-16T02:23:29;0.40;;;0.30;;
48026;SDS011;50714;49.208;5.364;2022-10-16T02:33:41;0.47;;;0.40;;
48026;SDS011;50714;49.208;5.364;2022-10-16T02:43:45;0.60;;;0.60;;
48026;SDS011;50714;49.208;5.364;2022-10-16T02:53:45;1.27;;;0.50;;
48026;SDS011;50714;49.208;5.364;2022-10-16T03:03:45;0.45;;;0.45;;
48026;SDS011;50714;49.208;5.364;2022-10-16T03:13:46;0.40;;;0.40;;
48026;SDS011;50714;49.208;5.364;2022-10-16T03:23:46;0.40;;;0.40;;
48026;SDS011;50714;49.208;5.364;2022-10-16T03:33:46;0.38;;;0.32;;
48026;SDS011;50714;49.208;5.364;2022-10-16T03:43:47;0.77;;;0.40;;
48026;SDS011;50714;49.208;5.364;2022-10-16T03:53:47;0.70;;;0.68;;
48026;SDS011;50714;49.208;5.364;2022-10-16T04:03:48;1.02;;;0.60;;
48026;SDS011;50714;49.208;5.364;2022-10-16T04:13:48;0.60;;;0.57;;
48026;SDS011;50714;49.208;5.364;2022-10-16T04:23:48;1.15;;;0.50;;
48026;SDS011;50714;49.208;5.364;2022-10-16T04:33:49;1.13;;;0.60;;
48026;SDS011;50714;49.208;5.364;2022-10-16T04:43:49;1.15;;;0.60;;
48026;SDS011;50714;49.208;5.364;2022-10-16T04:53:50;1.80;;;0.80;;
48026;SDS011;50714;49.208;5.364;2022-10-16T05:03:50;1.25;;;0.80;;
48026;SDS011;50714;49.208;5.364;2022-10-16T05:13:51;1.20;;;0.60;;
48026;SDS011;50714;49.208;5.364;2022-10-16T05:23:52;1.55;;;0.70;;
48026;SDS011;50714;49.208;5.364;2022-10-16T05:33:57;0.60;;;0.50;;
48026;SDS011;50714;49.208;5.364;2022-10-16T05:43:59;2.30;;;0.50;;
48026;SDS011;50714;49.208;5.364;2022-10-16T05:53:59;0.77;;;0.47;;
48026;SDS011;50714;49.208;5.364;2022-10-16T06:04:00;0.88;;;0.63;;
48026;SDS011;50714;49.208;5.364;2022-10-16T06:14:01;1.63;;;1.10;;
48026;SDS011;50714;49.208;5.364;2022-10-16T06:24:06;1.45;;;1.00;;
48026;SDS011;50714;49.208;5.364;2022-10-16T06:34:08;1.30;;;1.20;;
48026;SDS011;50714;49.208;5.364;2022-10-16T06:44:10;2.25;;;1.02;;
48026;SDS011;50714;49.208;5.364;2022-10-16T06:54:10;1.20;;;1.10;;
48026;SDS011;50714;49.208;5.364;2022-10-16T07:04:11;1.15;;;0.95;;
48026;SDS011;50714;49.208;5.364;2022-10-16T07:14:15;0.80;;;0.65;;
48026;SDS011;50714;49.208;5.364;2022-10-16T07:24:18;0.57;;;0.57;;
48026;SDS011;50714;49.208;5.364;2022-10-16T07:34:18;1.02;;;0.80;;
48026;SDS011;50714;49.208;5.364;2022-10-16T07:44:21;0.95;;;0.70;;
48026;SDS011;50714;49.208;5.364;2022-10-16T07:54:21;0.93;;;0.70;;
48026;SDS011;50714;49.208;5.364;2022-10-16T08:04:22;2.53;;;1.00;;
48026;SDS011;50714;49.208;5.364;2022-10-16T08:14:22;1.30;;;0.75;;
48026;SDS011;50714;49.208;5.364;2022-10-16T08:24:23;3.15;;;1.10;;
48026;SDS011;50714;49.208;5.364;2022-10-16T08:34:23;0.73;;;0.73;;
48026;SDS011;50714;49.208;5.364;2022-10-16T09:25:46;2.58;;;1.48;;
48026;SDS011;50714;49.208;5.364;2022-10-16T09:35:49;2.15;;;1.30;;
48026;SDS011;50714;49.208;5.364;2022-10-16T09:45:55;1.77;;;1.20;;
48026;SDS011;50714;49.208;5.364;2022-10-16T09:56:00;2.53;;;1.73;;
48026;SDS011;50714;49.208;5.364;2022-10-16T10:06:06;2.53;;;1.37;;
48026;SDS011;50714;49.208;5.364;2022-10-16T10:16:23;2.97;;;1.40;;
48026;SDS011;50714;49.208;5.364;2022-10-16T10:26:24;1.40;;;1.30;;
48026;SDS011;50714;49.208;5.364;2022-10-16T10:46:38;1.40;;;1.30;;
48026;SDS011;50714;49.208;5.364;2022-10-16T10:56:51;2.03;;;1.30;;
48026;SDS011;50714;49.208;5.364;2022-10-16T11:06:58;1.02;;;0.95;;
48026;SDS011;50714;49.208;5.364;2022-10-16T11:17:12;0.88;;;0.88;;
48026;SDS011;50714;49.208;5.364;2022-10-16T11:27:20;1.30;;;1.13;;
48026;SDS011;50714;49.208;5.364;2022-10-16T11:37:28;1.20;;;1.08;;
48026;SDS011;50714;49.208;5.364;2022-10-16T11:57:39;0.88;;;0.88;;
48026;SDS011;50714;49.208;5.364;2022-10-16T12:08:08;1.93;;;1.27;;
48026;SDS011;50714;49.208;5.364;2022-10-16T12:18:21;1.00;;;0.90;;
48026;SDS011;50714;49.208;5.364;2022-10-16T12:28:29;1.17;;;1.00;;
48026;SDS011;50714;49.208;5.364;2022-10-16T12:38:38;1.97;;;1.00;;
48026;SDS011;50714;49.208;5.364;2022-10-16T12:48:46;3.55;;;1.13;;
48026;SDS011;50714;49.208;5.364;2022-10-16T12:59:01;1.40;;;1.30;;
48026;SDS011;50714;49.208;5.364;2022-10-16T13:19:25;1.17;;;1.00;;
48026;SDS011;50714;49.208;5.364;2022-10-16T13:29:33;1.40;;;1.23;;
48026;SDS011;50714;49.208;5.364;2022-10-16T13:39:34;0.80;;;0.80;;
48026;SDS011;50714;49.208;5.364;2022-10-16T13:49:34;1.85;;;0.98;;
48026;SDS011;50714;49.208;5.364;2022-10-16T13:59:35;1.02;;;0.93;;
48026;SDS011;50714;49.208;5.364;2022-10-16T14:09:39;1.20;;;1.10;;
48026;SDS011;50714;49.208;5.364;2022-10-16T14:19:40;1.25;;;1.15;;
48026;SDS011;50714;49.208;5.364;2022-10-16T14:29:46;1.40;;;1.30;;
48026;SDS011;50714;49.208;5.364;2022-10-16T14:39:50;1.25;;;1.15;;
48026;SDS011;50714;49.208;5.364;2022-10-16T14:49:52;1.88;;;1.40;;
48026;SDS011;50714;49.208;5.364;2022-10-16T14:59:54;1.83;;;1.40;;
48026;SDS011;50714;49.208;5.364;2022-10-16T15:09:56;1.67;;;1.10;;
48026;SDS011;50714;49.208;5.364;2022-10-16T15:19:57;2.90;;;1.73;;
48026;SDS011;50714;49.208;5.364;2022-10-16T15:29:59;1.98;;;1.60;;
48026;SDS011;50714;49.208;5.364;2022-10-16T15:39:59;1.50;;;1.20;;
48026;SDS011;50714;49.208;5.364;2022-10-16T15:49:59;1.48;;;1.33;;
48026;SDS011;50714;49.208;5.364;2022-10-16T16:00:00;2.17;;;1.30;;
48026;SDS011;50714;49.208;5.364;2022-10-16T16:10:00;1.60;;;1.50;;
48026;SDS011;50714;49.208;5.364;2022-10-16T16:20:02;2.05;;;1.40;;
48026;SDS011;50714;49.208;5.364;2022-10-16T16:30:05;1.20;;;1.10;;
48026;SDS011;50714;49.208;5.364;2022-10-16T16:40:07;2.15;;;1.48;;
48026;SDS011;50714;49.208;5.364;2022-10-16T16:50:07;1.75;;;1.45;;
48026;SDS011;50714;49.208;5.364;2022-10-16T17:00:08;1.53;;;1.43;;
48026;SDS011;50714;49.208;5.364;2022-10-16T17:10:09;2.10;;;1.60;;
48026;SDS011;50714;49.208;5.364;2022-10-16T17:20:09;4.07;;;1.63;;
48026;SDS011;50714;49.208;5.364;2022-10-16T17:30:10;2.35;;;2.15;;
48026;SDS011;50714;49.208;5.364;2022-10-16T17:40:10;2.85;;;1.80;;
48026;SDS011;50714;49.208;5.364;2022-10-16T17:50:11;3.03;;;2.10;;
48026;SDS011;50714;49.208;5.364;2022-10-16T18:00:12;2.60;;;2.05;;
48026;SDS011;50714;49.208;5.364;2022-10-16T18:10:12;3.72;;;1.85;;
48026;SDS011;50714;49.208;5.364;2022-10-16T18:20:13;2.10;;;1.90;;
48026;SDS011;50714;49.208;5.364;2022-10-16T18:30:13;2.30;;;2.08;;
48026;SDS011;50714;49.208;5.364;2022-10-16T18:40:14;2.60;;;1.80;;
48026;SDS011;50714;49.208;5.364;2022-10-16T18:50:14;4.13;;;3.15;;
48026;SDS011;50714;49.208;5.364;2022-10-16T19:00:14;4.00;;;3.50;;
48026;SDS011;50714;49.208;5.364;2022-10-16T19:10:15;3.77;;;3.37;;
48026;SDS011;50714;49.208;5.364;2022-10-16T19:20:15;17.23;;;14.48;;
48026;SDS011;50714;49.208;5.364;2022-10-16T19:30:17;26.60;;;21.70;;
48026;SDS011;50714;49.208;5.364;2022-10-16T19:40:18;23.27;;;19.70;;
48026;SDS011;50714;49.208;5.364;2022-10-16T19:50:18;12.43;;;9.32;;
48026;SDS011;50714;49.208;5.364;2022-10-16T20:00:18;6.40;;;4.32;;
48026;SDS011;50714;49.208;5.364;2022-10-16T20:10:19;4.50;;;3.60;;
48026;SDS011;50714;49.208;5.364;2022-10-16T20:20:19;3.25;;;2.75;;
48026;SDS011;50714;49.208;5.364;2022-10-16T20:30:19;3.22;;;2.70;;
48026;SDS011;50714;49.208;5.364;2022-10-16T20:40:20;3.47;;;3.10;;
48026;SDS011;50714;49.208;5.364;2022-10-16T20:50:20;4.63;;;2.97;;
48026;SDS011;50714;49.208;5.364;2022-10-16T21:00:22;3.78;;;2.90;;
48026;SDS011;50714;49.208;5.364;2022-10-16T21:10:23;3.33;;;3.03;;
48026;SDS011;50714;49.208;5.364;2022-10-16T21:20:23;4.03;;;3.13;;
48026;SDS011;50714;49.208;5.364;2022-10-16T21:30:23;3.65;;;2.65;;
48026;SDS011;50714;49.208;5.364;2022-10-16T21:40:24;3.63;;;2.67;;
48026;SDS011;50714;49.208;5.364;2022-10-16T21:50:25;3.90;;;2.70;;
48026;SDS011;50714;49.208;5.364;2022-10-16T22:00:25;2.65;;;2.45;;
48026;SDS011;50714;49.208;5.364;2022-10-16T22:10:26;3.40;;;2.72;;
48026;SDS011;50714;49.208;5.364;2022-10-16T22:20:26;3.70;;;2.67;;
48026;SDS011;50714;49.208;5.364;2022-10-16T22:30:26;3.80;;;3.15;;
48026;SDS011;50714;49.208;5.364;2022-10-16T22:40:27;4.53;;;3.42;;
48026;SDS011;50714;49.208;5.364;2022-10-16T22:50:27;3.38;;;2.85;;
48026;SDS011;50714;49.208;5.364;2022-10-16T23:00:28;2.85;;;2.53;;
48026;SDS011;50714;49.208;5.364;2022-10-16T23:10:28;3.25;;;2.45;;
48026;SDS011;50714;49.208;5.364;2022-10-16T23:20:28;3.33;;;3.03;;
48026;SDS011;50714;49.208;5.364;2022-10-16T23:30:29;3.17;;;2.70;;
48026;SDS011;50714;49.208;5.364;2022-10-16T23:40:29;3.05;;;2.72;;
48026;SDS011;50714;49.208;5.364;2022-10-16T23:50:30;3.85;;;2.78;;
